createdAt,value
2019-04-21T00:00:14.637Z,0.00
2019-04-21T00:01:12.392Z,0.00
2019-04-21T00:02:14.799Z,0.09
2019-04-21T00:03:16.538Z,0.13
2019-04-21T00:04:22.827Z,0.00
2019-04-21T00:06:33.023Z,0.00
2019-04-21T00:07:29.701Z,0.00
2019-04-21T00:09:32.663Z,0.00
2019-04-21T00:10:33.362Z,0.00
2019-04-21T00:12:22.634Z,0.00
2019-04-21T00:13:23.626Z,0.00
2019-04-21T00:15:20.213Z,0.00
2019-04-21T00:16:12.676Z,0.00
2019-04-21T00:17:15.649Z,0.01
2019-04-21T00:18:11.073Z,0.00
2019-04-21T00:19:14.474Z,0.00
2019-04-21T00:20:18.941Z,0.00
2019-04-21T00:21:21.161Z,0.00
2019-04-21T00:22:19.163Z,0.00
2019-04-21T00:23:19.402Z,0.00
2019-04-21T00:24:24.282Z,0.00
2019-04-21T00:25:25.254Z,0.00
2019-04-21T00:26:31.468Z,0.00
2019-04-21T00:27:25.463Z,0.00
2019-04-21T00:28:32.537Z,0.01
2019-04-21T00:30:21.794Z,0.00
2019-04-21T00:32:21.991Z,0.00
2019-04-21T00:33:17.848Z,0.00
2019-04-21T00:34:11.166Z,0.00
2019-04-21T00:35:14.170Z,0.00
2019-04-21T00:36:16.925Z,0.00
2019-04-21T00:37:21.009Z,0.00
2019-04-21T00:38:33.378Z,0.00
2019-04-21T00:39:28.694Z,0.00
2019-04-21T00:41:27.669Z,0.00
2019-04-21T00:42:29.148Z,0.00
2019-04-21T00:43:29.427Z,0.00
2019-04-21T00:44:21.495Z,0.00
2019-04-21T00:45:20.591Z,0.00
2019-04-21T00:46:27.966Z,0.00
2019-04-21T00:47:30.386Z,0.00
2019-04-21T00:48:29.857Z,0.00
2019-04-21T00:49:24.356Z,0.00
2019-04-21T00:50:24.823Z,0.00
2019-04-21T00:51:40.868Z,0.00
2019-04-21T00:52:47.629Z,0.00
2019-04-21T00:53:41.855Z,0.00
2019-04-21T00:54:33.075Z,0.00
2019-04-21T00:55:29.834Z,0.00
2019-04-21T00:56:34.039Z,0.00
2019-04-21T00:57:27.739Z,0.00
2019-04-21T00:58:33.149Z,0.00
2019-04-21T00:59:33.451Z,0.00
2019-04-21T01:00:22.292Z,0.00
2019-04-21T01:03:32.432Z,0.00
2019-04-21T01:04:39.540Z,0.00
2019-04-21T01:06:35.223Z,0.00
2019-04-21T01:07:31.958Z,0.00
2019-04-21T01:08:31.130Z,0.00
2019-04-21T01:09:29.145Z,0.00
2019-04-21T01:11:28.172Z,0.00
2019-04-21T01:12:28.274Z,0.00
2019-04-21T01:13:36.306Z,0.00
2019-04-21T01:14:29.891Z,0.00
2019-04-21T01:15:40.960Z,0.00
2019-04-21T01:16:33.459Z,0.00
2019-04-21T01:17:32.785Z,0.00
2019-04-21T01:18:32.403Z,0.00
2019-04-21T01:19:26.447Z,0.00
2019-04-21T01:20:16.893Z,0.00
2019-04-21T01:21:14.317Z,0.00
2019-04-21T01:22:09.906Z,0.00
2019-04-21T01:23:10.557Z,0.00
2019-04-21T01:24:15.921Z,0.00
2019-04-21T01:25:19.964Z,0.00
2019-04-21T01:26:20.873Z,0.00
2019-04-21T01:27:18.521Z,0.00
2019-04-21T01:28:27.035Z,0.00
2019-04-21T01:29:27.635Z,0.00
2019-04-21T01:30:31.210Z,0.00
2019-04-21T01:31:22.981Z,0.00
2019-04-21T01:32:29.672Z,0.00
2019-04-21T01:33:33.577Z,0.00
2019-04-21T01:34:34.172Z,0.00
2019-04-21T01:35:25.701Z,0.00
2019-04-21T01:36:26.070Z,0.00
2019-04-21T01:37:32.994Z,0.00
2019-04-21T01:38:34.362Z,0.00
2019-04-21T01:39:35.386Z,0.00
2019-04-21T01:40:28.863Z,0.00
2019-04-21T01:41:35.075Z,0.00
2019-04-21T01:42:35.911Z,0.00
2019-04-21T01:43:27.597Z,0.00
2019-04-21T01:44:39.116Z,0.00
2019-04-21T01:45:27.697Z,0.00
2019-04-21T01:46:25.919Z,0.00
2019-04-21T01:47:25.200Z,0.00
2019-04-21T01:48:24.405Z,0.00
2019-04-21T01:49:21.534Z,0.00
2019-04-21T01:50:31.792Z,0.00
2019-04-21T01:51:23.605Z,0.00
2019-04-21T01:52:38.614Z,0.00
2019-04-21T01:53:34.820Z,0.00
2019-04-21T01:54:28.520Z,0.00
2019-04-21T01:55:30.849Z,0.00
2019-04-21T01:56:30.499Z,0.00
2019-04-21T01:57:26.271Z,0.00
2019-04-21T01:58:24.077Z,0.00
2019-04-21T01:59:18.805Z,0.00
2019-04-21T02:00:30.543Z,0.00
2019-04-21T02:02:29.400Z,0.00
2019-04-21T02:03:48.606Z,0.00
2019-04-21T02:04:36.389Z,0.00
2019-04-21T02:06:29.203Z,0.00
2019-04-21T02:07:27.545Z,0.00
2019-04-21T02:08:27.521Z,0.00
2019-04-21T02:09:29.297Z,0.00
2019-04-21T02:10:34.548Z,0.00
2019-04-21T02:11:31.379Z,0.00
2019-04-21T02:12:33.417Z,0.00
2019-04-21T02:13:27.968Z,0.00
2019-04-21T02:14:31.773Z,0.00
2019-04-21T02:15:40.362Z,0.00
2019-04-21T02:16:28.117Z,0.00
2019-04-21T02:17:31.165Z,0.00
2019-04-21T02:18:27.680Z,0.32
2019-04-21T02:19:23.406Z,0.00
2019-04-21T02:20:23.031Z,0.00
2019-04-21T02:21:21.673Z,0.00
2019-04-21T02:22:35.360Z,0.00
2019-04-21T02:25:31.804Z,0.00
2019-04-21T02:26:33.561Z,0.00
2019-04-21T02:27:26.640Z,0.00
2019-04-21T02:28:38.412Z,0.00
2019-04-21T02:29:34.748Z,0.00
2019-04-21T02:32:45.733Z,0.00
2019-04-21T02:33:50.722Z,0.00
2019-04-21T02:34:38.005Z,0.00
2019-04-21T02:36:55.755Z,0.00
2019-04-21T02:37:36.673Z,0.00
2019-04-21T02:38:44.684Z,0.00
2019-04-21T02:39:30.307Z,0.00
2019-04-21T02:42:46.596Z,0.00
2019-04-21T02:44:46.239Z,0.00
2019-04-21T02:45:42.281Z,0.00
2019-04-21T02:47:48.366Z,0.00
2019-04-21T02:49:57.505Z,0.00
2019-04-21T02:50:37.630Z,0.00
2019-04-21T02:51:38.869Z,0.00
2019-04-21T02:52:43.715Z,0.00
2019-04-21T02:54:54.000Z,0.00
2019-04-21T02:55:36.287Z,0.00
2019-04-21T02:56:44.220Z,0.00
2019-04-21T02:57:43.831Z,0.00
2019-04-21T02:58:41.970Z,0.00
2019-04-21T02:59:42.924Z,0.00
2019-04-21T03:00:32.265Z,0.00
2019-04-21T03:01:48.713Z,0.00
2019-04-21T03:05:40.970Z,0.00
2019-04-21T03:06:40.257Z,0.00
2019-04-21T03:07:46.093Z,0.00
2019-04-21T03:08:33.691Z,0.00
2019-04-21T03:09:43.244Z,0.00
2019-04-21T03:11:35.010Z,0.00
2019-04-21T03:12:42.069Z,0.00
2019-04-21T03:13:50.013Z,0.00
2019-04-21T03:14:47.643Z,0.00
2019-04-21T03:16:31.042Z,0.00
2019-04-21T03:17:46.504Z,0.00
2019-04-21T03:18:43.777Z,0.00
2019-04-21T03:20:35.753Z,0.00
2019-04-21T03:21:41.547Z,0.00
2019-04-21T03:23:52.554Z,0.00
2019-04-21T03:24:52.617Z,0.00
2019-04-21T03:25:41.604Z,0.00
2019-04-21T03:26:50.451Z,0.00
2019-04-21T03:27:50.892Z,0.00
2019-04-21T03:28:36.996Z,0.00
2019-04-21T03:32:05.530Z,0.00
2019-04-21T03:34:29.486Z,0.00
2019-04-21T03:36:58.629Z,0.13
2019-04-21T03:37:39.853Z,1.03
2019-04-21T03:38:37.504Z,0.43
2019-04-21T03:39:47.029Z,1.03
2019-04-21T03:40:32.400Z,1.29
2019-04-21T03:41:30.969Z,1.37
2019-04-21T03:42:42.475Z,0.20
2019-04-21T03:44:37.087Z,1.15
2019-04-21T03:46:43.825Z,0.16
2019-04-21T03:47:35.986Z,0.30
2019-04-21T03:48:41.025Z,0.07
2019-04-21T03:52:48.322Z,0.61
2019-04-21T03:53:39.950Z,1.11
2019-04-21T03:54:41.976Z,1.75
2019-04-21T03:57:58.020Z,1.53
2019-04-21T03:58:46.960Z,1.35
2019-04-21T03:59:24.304Z,1.44
2019-04-21T04:00:57.695Z,2.28
2019-04-21T04:01:44.890Z,1.62
2019-04-21T04:02:45.213Z,2.04
2019-04-21T04:04:00.685Z,2.44
2019-04-21T04:04:49.722Z,2.62
2019-04-21T04:06:43.033Z,2.07
2019-04-21T04:07:50.217Z,1.01
2019-04-21T04:08:53.466Z,0.39
2019-04-21T04:09:49.679Z,0.03
2019-04-21T04:10:46.958Z,0.05
2019-04-21T04:11:44.095Z,0.12
2019-04-21T04:16:37.498Z,0.00
2019-04-21T04:19:39.344Z,0.69
2019-04-21T04:21:49.370Z,0.00
2019-04-21T04:22:50.770Z,0.00
2019-04-21T04:23:49.184Z,0.00
2019-04-21T04:25:33.529Z,0.00
2019-04-21T04:26:43.330Z,0.00
2019-04-21T04:27:53.730Z,0.00
2019-04-21T04:28:46.497Z,0.00
2019-04-21T04:30:35.691Z,0.00
2019-04-21T04:31:37.683Z,0.00
2019-04-21T04:32:42.026Z,0.02
2019-04-21T04:33:51.115Z,0.49
2019-04-21T04:34:40.754Z,0.45
2019-04-21T04:35:52.470Z,0.01
2019-04-21T04:38:56.373Z,0.00
2019-04-21T04:40:42.455Z,0.00
2019-04-21T04:42:51.615Z,0.00
2019-04-21T04:43:32.951Z,0.00
2019-04-21T04:45:48.444Z,0.00
2019-04-21T04:46:52.780Z,0.00
2019-04-21T04:47:46.605Z,0.00
2019-04-21T04:50:49.738Z,0.00
2019-04-21T04:52:41.943Z,0.00
2019-04-21T04:55:40.991Z,0.00
2019-04-21T04:56:40.538Z,0.00
2019-04-21T04:58:59.546Z,0.00
2019-04-21T04:59:42.426Z,0.05
2019-04-21T05:00:43.576Z,0.27
2019-04-21T05:01:34.885Z,0.23
2019-04-21T05:03:45.655Z,0.00
2019-04-21T05:04:49.976Z,0.00
2019-04-21T05:05:36.243Z,0.43
2019-04-21T05:06:53.893Z,0.00
2019-04-21T05:07:52.351Z,0.00
2019-04-21T05:08:55.948Z,0.00
2019-04-21T05:09:42.810Z,0.00
2019-04-21T05:10:49.088Z,0.00
2019-04-21T05:12:36.762Z,0.00
2019-04-21T05:13:44.697Z,0.00
2019-04-21T05:14:43.959Z,0.00
2019-04-21T05:15:32.219Z,0.00
2019-04-21T05:16:46.656Z,0.16
2019-04-21T05:17:30.607Z,0.06
2019-04-21T05:18:46.583Z,0.91
2019-04-21T05:19:48.950Z,0.32
2019-04-21T05:20:29.844Z,0.17
2019-04-21T05:21:40.450Z,0.37
2019-04-21T05:22:35.445Z,0.04
2019-04-21T05:23:32.645Z,0.00
2019-04-21T05:24:28.905Z,0.32
2019-04-21T05:25:27.347Z,0.14
2019-04-21T05:26:21.398Z,0.04
2019-04-21T05:27:25.616Z,0.00
2019-04-21T05:28:24.784Z,0.04
2019-04-21T05:29:20.418Z,0.40
2019-04-21T05:30:36.335Z,0.69
2019-04-21T05:31:25.081Z,0.39
2019-04-21T05:32:32.007Z,0.00
2019-04-21T05:33:32.280Z,1.05
2019-04-21T05:34:30.539Z,0.20
2019-04-21T05:36:27.844Z,1.02
2019-04-21T05:37:28.614Z,1.42
2019-04-21T05:38:27.181Z,0.60
2019-04-21T05:39:23.420Z,0.17
2019-04-21T05:40:24.923Z,1.82
2019-04-21T05:42:25.960Z,0.95
2019-04-21T05:43:32.569Z,1.15
2019-04-21T05:45:34.826Z,1.35
2019-04-21T05:46:32.263Z,1.15
2019-04-21T05:47:35.475Z,0.99
2019-04-21T05:48:35.115Z,1.18
2019-04-21T05:49:29.487Z,1.64
2019-04-21T05:50:27.759Z,1.08
2019-04-21T05:51:28.727Z,1.76
2019-04-21T05:52:29.579Z,1.41
2019-04-21T05:53:45.631Z,1.63
2019-04-21T05:54:42.332Z,1.52
2019-04-21T05:55:40.707Z,1.59
2019-04-21T05:57:29.106Z,1.04
2019-04-21T05:58:31.731Z,0.98
2019-04-21T05:59:32.416Z,0.24
2019-04-21T06:00:46.723Z,0.31
2019-04-21T06:01:31.421Z,1.01
2019-04-21T06:02:29.274Z,0.46
2019-04-21T06:03:36.813Z,0.52
2019-04-21T06:04:48.165Z,1.82
2019-04-21T06:05:28.663Z,1.11
2019-04-21T06:06:34.109Z,1.73
2019-04-21T06:07:28.743Z,1.64
2019-04-21T06:08:30.870Z,1.47
2019-04-21T06:09:32.430Z,1.59
2019-04-21T06:10:34.907Z,1.24
2019-04-21T06:11:30.382Z,1.63
2019-04-21T06:12:35.934Z,1.00
2019-04-21T06:14:31.194Z,0.85
2019-04-21T06:15:39.549Z,0.77
2019-04-21T06:16:36.382Z,1.19
2019-04-21T06:17:36.863Z,0.33
2019-04-21T06:19:41.422Z,1.70
2019-04-21T06:20:28.684Z,1.26
2019-04-21T06:21:35.994Z,0.80
2019-04-21T06:22:28.921Z,1.89
2019-04-21T06:23:24.184Z,1.83
2019-04-21T06:24:21.846Z,1.44
2019-04-21T06:25:50.323Z,1.15
2019-04-21T06:26:50.409Z,0.79
2019-04-21T06:27:34.395Z,1.12
2019-04-21T06:28:30.637Z,1.68
2019-04-21T06:29:33.131Z,1.82
2019-04-21T06:30:33.181Z,1.52
2019-04-21T06:32:09.138Z,0.92
2019-04-21T06:32:47.119Z,0.68
2019-04-21T06:33:36.319Z,2.16
2019-04-21T06:34:49.326Z,1.30
2019-04-21T06:35:47.109Z,0.69
2019-04-21T06:36:36.171Z,0.87
2019-04-21T06:37:47.071Z,1.41
2019-04-21T06:38:43.298Z,1.17
2019-04-21T06:39:34.450Z,1.56
2019-04-21T06:40:38.943Z,0.72
2019-04-21T06:42:33.299Z,0.74
2019-04-21T06:43:38.118Z,0.55
2019-04-21T06:44:33.545Z,0.29
2019-04-21T06:45:34.784Z,0.49
2019-04-21T06:46:35.360Z,0.72
2019-04-21T06:47:30.028Z,1.00
2019-04-21T06:48:32.944Z,0.52
2019-04-21T06:49:30.350Z,0.75
2019-04-21T06:50:41.178Z,0.44
2019-04-21T06:51:30.708Z,0.35
2019-04-21T06:52:46.575Z,0.36
2019-04-21T06:53:39.688Z,0.75
2019-04-21T06:54:35.632Z,1.08
2019-04-21T06:55:29.272Z,1.13
2019-04-21T06:56:38.016Z,0.24
2019-04-21T06:57:35.760Z,0.23
2019-04-21T06:59:31.878Z,1.16
2019-04-21T07:00:30.484Z,0.63
2019-04-21T07:01:36.018Z,0.54
2019-04-21T07:02:43.782Z,0.83
2019-04-21T07:03:34.660Z,0.49
2019-04-21T07:05:34.644Z,1.04
2019-04-21T07:06:40.428Z,0.83
2019-04-21T07:08:36.991Z,0.50
2019-04-21T07:09:34.149Z,1.03
2019-04-21T07:10:32.012Z,0.95
2019-04-21T07:11:25.292Z,1.08
2019-04-21T07:12:22.128Z,0.98
2019-04-21T07:13:33.333Z,0.50
2019-04-21T07:14:34.642Z,1.08
2019-04-21T07:15:30.467Z,0.33
2019-04-21T07:16:36.697Z,0.63
2019-04-21T07:18:37.101Z,0.06
2019-04-21T07:19:34.703Z,0.27
2019-04-21T07:20:24.783Z,0.40
2019-04-21T07:21:34.409Z,0.76
2019-04-21T07:22:24.637Z,1.04
2019-04-21T07:23:31.946Z,1.02
2019-04-21T07:24:32.058Z,1.25
2019-04-21T07:25:32.814Z,0.87
2019-04-21T07:26:32.742Z,0.59
2019-04-21T07:27:39.694Z,0.46
2019-04-21T07:28:33.857Z,0.34
2019-04-21T07:29:34.534Z,0.34
2019-04-21T07:30:29.381Z,0.72
2019-04-21T07:32:26.475Z,0.65
2019-04-21T07:33:43.429Z,0.35
2019-04-21T07:34:36.403Z,0.46
2019-04-21T07:35:34.522Z,0.15
2019-04-21T07:36:39.566Z,0.96
2019-04-21T07:37:23.963Z,0.36
2019-04-21T07:38:28.607Z,0.30
2019-04-21T07:39:27.148Z,0.03
2019-04-21T07:40:29.070Z,0.09
2019-04-21T07:41:22.239Z,0.27
2019-04-21T07:42:28.094Z,0.19
2019-04-21T07:43:25.937Z,0.39
2019-04-21T07:44:30.288Z,0.44
2019-04-21T07:45:29.201Z,0.68
2019-04-21T07:46:24.797Z,0.37
2019-04-21T07:47:28.474Z,0.34
2019-04-21T07:48:32.238Z,0.57
2019-04-21T07:49:33.878Z,1.26
2019-04-21T07:50:31.822Z,1.09
2019-04-21T07:51:31.737Z,0.85
2019-04-21T07:53:36.070Z,0.84
2019-04-21T07:54:38.520Z,0.04
2019-04-21T07:56:20.274Z,0.58
2019-04-21T07:58:29.012Z,1.34
2019-04-21T08:00:45.816Z,1.13
2019-04-21T08:01:31.883Z,0.47
2019-04-21T08:03:34.422Z,1.86
2019-04-21T08:05:31.065Z,1.56
2019-04-21T08:06:33.708Z,1.61
2019-04-21T08:07:43.359Z,0.81
2019-04-21T08:08:26.274Z,0.16
2019-04-21T08:09:33.033Z,1.00
2019-04-21T08:10:28.521Z,1.34
2019-04-21T08:11:27.710Z,1.33
2019-04-21T08:12:25.850Z,1.12
2019-04-21T08:14:28.573Z,0.55
2019-04-21T08:15:33.892Z,0.70
2019-04-21T08:16:30.429Z,1.65
2019-04-21T08:17:30.259Z,2.17
2019-04-21T08:18:33.694Z,1.83
2019-04-21T08:21:35.619Z,0.92
2019-04-21T08:22:35.025Z,0.90
2019-04-21T08:24:30.524Z,1.20
2019-04-21T08:25:42.052Z,2.40
2019-04-21T08:26:31.190Z,3.12
2019-04-21T08:27:37.309Z,2.39
2019-04-21T08:28:32.358Z,1.61
2019-04-21T08:29:33.489Z,1.44
2019-04-21T08:30:32.003Z,1.32
2019-04-21T08:31:36.377Z,1.26
2019-04-21T08:32:36.275Z,0.75
2019-04-21T08:33:37.227Z,1.57
2019-04-21T08:34:30.524Z,1.34
2019-04-21T08:36:04.804Z,2.06
2019-04-21T08:36:28.183Z,1.65
2019-04-21T08:37:32.843Z,0.47
2019-04-21T08:38:27.664Z,1.78
2019-04-21T08:39:30.826Z,1.28
2019-04-21T08:40:31.666Z,1.06
2019-04-21T08:41:22.999Z,1.24
2019-04-21T08:42:36.801Z,1.52
2019-04-21T08:43:40.031Z,1.92
2019-04-21T08:44:35.246Z,1.99
2019-04-21T08:45:32.814Z,1.74
2019-04-21T08:47:36.016Z,1.71
2019-04-21T08:48:33.432Z,1.83
2019-04-21T08:49:29.363Z,1.28
2019-04-21T08:51:33.576Z,4.26
2019-04-21T08:53:34.051Z,1.30
2019-04-21T08:54:28.139Z,2.55
2019-04-21T08:55:36.201Z,2.36
2019-04-21T08:56:31.976Z,0.62
2019-04-21T08:57:33.711Z,1.94
2019-04-21T08:58:31.025Z,1.32
2019-04-21T08:59:31.489Z,0.60
2019-04-21T09:00:36.947Z,1.81
2019-04-21T09:01:30.644Z,1.69
2019-04-21T09:02:32.433Z,2.12
2019-04-21T09:03:29.892Z,1.22
2019-04-21T09:04:29.093Z,1.69
2019-04-21T09:05:31.309Z,1.66
2019-04-21T09:06:49.845Z,1.77
2019-04-21T09:07:36.199Z,2.11
2019-04-21T09:08:31.662Z,1.45
2019-04-21T09:09:28.863Z,1.70
2019-04-21T09:11:28.870Z,1.87
2019-04-21T09:12:29.091Z,0.59
2019-04-21T09:14:25.418Z,0.69
2019-04-21T09:15:25.194Z,0.99
2019-04-21T09:16:24.938Z,1.87
2019-04-21T09:17:25.177Z,2.87
2019-04-21T09:18:25.457Z,2.22
2019-04-21T09:19:38.572Z,2.12
2019-04-21T09:20:26.381Z,1.34
2019-04-21T09:21:31.377Z,2.92
2019-04-21T09:22:28.583Z,2.52
2019-04-21T09:23:25.551Z,0.90
2019-04-21T09:24:31.546Z,2.15
2019-04-21T09:25:33.512Z,1.84
2019-04-21T09:26:29.401Z,1.33
2019-04-21T09:27:25.773Z,0.68
2019-04-21T09:28:30.388Z,1.53
2019-04-21T09:29:21.729Z,2.00
2019-04-21T09:30:10.923Z,1.94
2019-04-21T09:31:10.717Z,2.32
2019-04-21T09:32:16.650Z,1.78
2019-04-21T09:33:11.571Z,1.93
2019-04-21T09:34:14.333Z,1.55
2019-04-21T09:35:12.435Z,3.84
2019-04-21T09:36:15.230Z,1.32
2019-04-21T09:37:16.545Z,3.48
2019-04-21T09:38:19.590Z,0.67
2019-04-21T09:39:15.041Z,1.32
2019-04-21T09:40:12.256Z,2.83
2019-04-21T09:41:15.920Z,1.98
2019-04-21T09:42:11.416Z,2.72
2019-04-21T09:43:13.294Z,1.28
2019-04-21T09:44:15.169Z,1.84
2019-04-21T09:45:12.050Z,1.06
2019-04-21T09:46:11.675Z,1.62
2019-04-21T09:47:11.020Z,1.11
2019-04-21T09:48:13.880Z,2.03
2019-04-21T09:49:13.670Z,1.70
2019-04-21T09:50:11.515Z,2.19
2019-04-21T09:51:11.070Z,1.27
2019-04-21T09:52:16.114Z,3.94
2019-04-21T09:53:16.812Z,1.02
2019-04-21T09:54:15.989Z,2.34
2019-04-21T09:55:13.919Z,3.05
2019-04-21T09:56:14.826Z,2.69
2019-04-21T09:57:21.911Z,3.03
2019-04-21T09:58:21.816Z,2.56
2019-04-21T09:59:19.723Z,1.82
2019-04-21T10:00:17.943Z,2.48
2019-04-21T10:01:18.537Z,1.48
2019-04-21T10:02:16.145Z,0.86
2019-04-21T10:03:13.904Z,2.00
2019-04-21T10:04:10.343Z,1.46
2019-04-21T10:05:10.303Z,1.38
2019-04-21T10:06:11.263Z,2.32
2019-04-21T10:07:23.608Z,2.28
2019-04-21T10:08:10.512Z,3.06
2019-04-21T10:09:14.181Z,2.31
2019-04-21T10:10:10.569Z,1.77
2019-04-21T10:11:10.321Z,1.33
2019-04-21T10:12:10.338Z,1.75
2019-04-21T10:13:10.648Z,3.02
2019-04-21T10:14:11.627Z,1.84
2019-04-21T10:15:10.689Z,2.16
2019-04-21T10:16:10.832Z,2.26
2019-04-21T10:17:10.963Z,1.86
2019-04-21T10:18:10.817Z,2.61
2019-04-21T10:19:11.206Z,2.60
2019-04-21T10:20:11.648Z,2.32
2019-04-21T10:21:10.326Z,2.25
2019-04-21T10:22:10.625Z,2.86
2019-04-21T10:23:11.375Z,1.75
2019-04-21T10:24:10.590Z,2.81
2019-04-21T10:25:10.619Z,2.96
2019-04-21T10:26:10.507Z,1.18
2019-04-21T10:27:12.435Z,1.95
2019-04-21T10:28:10.959Z,1.74
2019-04-21T10:29:19.776Z,4.13
2019-04-21T10:30:10.326Z,2.80
2019-04-21T10:31:11.064Z,2.35
2019-04-21T10:32:11.330Z,2.35
2019-04-21T10:33:10.442Z,1.63
2019-04-21T10:34:11.421Z,2.63
2019-04-21T10:35:10.935Z,1.57
2019-04-21T10:36:11.068Z,3.92
2019-04-21T10:37:11.247Z,2.59
2019-04-21T10:38:19.982Z,1.67
2019-04-21T10:39:11.518Z,1.10
2019-04-21T10:40:11.615Z,0.75
2019-04-21T10:41:11.735Z,1.55
2019-04-21T10:42:11.274Z,1.26
2019-04-21T10:43:13.489Z,1.60
2019-04-21T10:44:11.478Z,1.17
2019-04-21T10:45:10.855Z,2.32
2019-04-21T10:46:10.750Z,2.48
2019-04-21T10:47:11.010Z,0.98
2019-04-21T10:48:10.833Z,2.31
2019-04-21T10:49:10.768Z,2.09
2019-04-21T10:50:10.901Z,2.87
2019-04-21T10:51:10.734Z,2.51
2019-04-21T10:52:10.947Z,3.05
2019-04-21T10:53:11.119Z,3.40
2019-04-21T10:54:11.636Z,1.81
2019-04-21T10:55:30.964Z,1.66
2019-04-21T10:56:18.006Z,1.67
2019-04-21T10:57:10.490Z,2.10
2019-04-21T10:58:10.845Z,2.77
2019-04-21T10:59:10.370Z,1.86
2019-04-21T11:00:12.058Z,2.13
2019-04-21T11:01:10.685Z,1.79
2019-04-21T11:02:10.604Z,3.54
2019-04-21T11:03:10.922Z,1.58
2019-04-21T11:04:17.257Z,2.40
2019-04-21T11:05:10.368Z,1.34
2019-04-21T11:06:10.642Z,1.62
2019-04-21T11:07:14.016Z,1.98
2019-04-21T11:08:21.611Z,2.32
2019-04-21T11:09:10.782Z,1.73
2019-04-21T11:10:11.808Z,1.67
2019-04-21T11:11:10.394Z,1.45
2019-04-21T11:12:10.380Z,2.33
2019-04-21T11:13:10.491Z,1.87
2019-04-21T11:14:10.651Z,3.01
2019-04-21T11:15:11.450Z,2.17
2019-04-21T11:16:10.984Z,3.39
2019-04-21T11:17:10.395Z,2.92
2019-04-21T11:18:10.414Z,3.21
2019-04-21T11:19:11.634Z,2.95
2019-04-21T11:20:10.821Z,1.54
2019-04-21T11:21:11.171Z,2.08
2019-04-21T11:22:10.515Z,2.01
2019-04-21T11:23:10.401Z,2.53
2019-04-21T11:24:10.406Z,2.77
2019-04-21T11:25:11.222Z,2.11
2019-04-21T11:26:11.909Z,2.03
2019-04-21T11:27:10.924Z,2.30
2019-04-21T11:28:11.195Z,2.31
2019-04-21T11:29:10.780Z,3.48
2019-04-21T11:30:11.658Z,2.04
2019-04-21T11:31:11.087Z,3.64
2019-04-21T11:32:10.407Z,2.85
2019-04-21T11:33:11.226Z,3.85
2019-04-21T11:34:11.329Z,1.43
2019-04-21T11:35:10.408Z,3.09
2019-04-21T11:36:11.192Z,1.96
2019-04-21T11:37:10.409Z,2.64
2019-04-21T11:38:16.792Z,2.00
2019-04-21T11:39:22.052Z,1.23
2019-04-21T11:40:14.003Z,1.22
2019-04-21T11:41:11.823Z,1.28
2019-04-21T11:42:10.417Z,1.08
2019-04-21T11:43:11.471Z,1.84
2019-04-21T11:44:10.392Z,1.62
2019-04-21T11:45:10.545Z,2.12
2019-04-21T11:46:10.771Z,2.02
2019-04-21T11:47:10.498Z,2.44
2019-04-21T11:48:10.497Z,1.18
2019-04-21T11:49:10.491Z,1.95
2019-04-21T11:50:10.928Z,1.13
2019-04-21T11:51:11.038Z,1.17
2019-04-21T11:52:11.306Z,0.80
2019-04-21T11:53:10.685Z,1.52
2019-04-21T11:54:10.858Z,1.68
2019-04-21T11:55:11.114Z,0.65
2019-04-21T11:56:10.419Z,2.32
2019-04-21T11:57:15.163Z,1.97
2019-04-21T11:58:11.800Z,1.63
2019-04-21T11:59:10.438Z,3.17
2019-04-21T12:00:11.495Z,1.84
2019-04-21T12:01:11.567Z,2.21
2019-04-21T12:02:11.891Z,1.69
2019-04-21T12:03:13.351Z,3.99
2019-04-21T12:04:11.710Z,1.51
2019-04-21T12:05:11.626Z,4.66
2019-04-21T12:06:11.127Z,2.23
2019-04-21T12:07:11.409Z,1.84
2019-04-21T12:08:21.005Z,2.01
2019-04-21T12:09:11.831Z,1.22
2019-04-21T12:10:11.332Z,2.36
2019-04-21T12:11:11.394Z,1.37
2019-04-21T12:12:11.464Z,1.97
2019-04-21T12:13:10.469Z,3.04
2019-04-21T12:14:10.430Z,2.04
2019-04-21T12:15:12.407Z,3.13
2019-04-21T12:16:10.800Z,1.58
2019-04-21T12:17:10.459Z,1.27
2019-04-21T12:18:10.450Z,4.37
2019-04-21T12:19:10.487Z,2.01
2019-04-21T12:20:10.657Z,1.72
2019-04-21T12:21:11.457Z,2.94
2019-04-21T12:22:19.311Z,2.84
2019-04-21T12:23:10.467Z,1.96
2019-04-21T12:24:11.129Z,2.00
2019-04-21T12:25:11.255Z,1.81
2019-04-21T12:26:10.439Z,1.44
2019-04-21T12:27:11.915Z,3.81
2019-04-21T12:28:12.083Z,3.78
2019-04-21T12:29:10.487Z,1.84
2019-04-21T12:30:11.451Z,2.29
2019-04-21T12:31:11.620Z,2.85
2019-04-21T12:32:10.474Z,1.35
2019-04-21T12:33:11.967Z,1.63
2019-04-21T12:34:11.943Z,1.33
2019-04-21T12:35:10.466Z,2.45
2019-04-21T12:36:11.590Z,1.36
2019-04-21T12:37:10.986Z,2.25
2019-04-21T12:38:10.959Z,2.16
2019-04-21T12:39:10.777Z,2.26
2019-04-21T12:40:10.551Z,2.05
2019-04-21T12:41:10.801Z,2.77
2019-04-21T12:42:10.482Z,2.34
2019-04-21T12:43:10.668Z,2.71
2019-04-21T12:44:10.865Z,3.48
2019-04-21T12:45:10.491Z,1.83
2019-04-21T12:46:11.862Z,2.62
2019-04-21T12:47:10.463Z,1.53
2019-04-21T12:48:10.550Z,1.98
2019-04-21T12:49:11.725Z,2.34
2019-04-21T12:50:10.931Z,3.38
2019-04-21T12:51:10.488Z,1.23
2019-04-21T12:52:11.463Z,1.71
2019-04-21T12:53:13.853Z,2.19
2019-04-21T12:54:11.871Z,1.60
2019-04-21T12:55:11.383Z,2.91
2019-04-21T12:56:11.688Z,1.86
2019-04-21T12:57:11.728Z,2.62
2019-04-21T12:58:11.040Z,3.02
2019-04-21T12:59:10.488Z,2.14
2019-04-21T13:00:11.153Z,3.30
2019-04-21T13:01:10.513Z,3.49
2019-04-21T13:02:11.702Z,4.48
2019-04-21T13:03:11.677Z,2.36
2019-04-21T13:04:10.545Z,2.45
2019-04-21T13:05:11.546Z,2.74
2019-04-21T13:06:11.657Z,2.38
2019-04-21T13:07:10.541Z,0.79
2019-04-21T13:08:11.453Z,2.08
2019-04-21T13:09:13.099Z,1.42
2019-04-21T13:10:10.604Z,1.24
2019-04-21T13:11:11.410Z,1.14
2019-04-21T13:12:11.061Z,0.80
2019-04-21T13:13:10.549Z,1.09
2019-04-21T13:14:11.536Z,1.76
2019-04-21T13:15:10.846Z,1.97
2019-04-21T13:16:11.604Z,0.53
2019-04-21T13:17:10.519Z,0.98
2019-04-21T13:18:10.540Z,2.61
2019-04-21T13:19:11.422Z,1.19
2019-04-21T13:20:11.565Z,1.14
2019-04-21T13:21:11.920Z,2.27
2019-04-21T13:22:12.013Z,3.02
2019-04-21T13:23:10.514Z,2.37
2019-04-21T13:24:11.674Z,1.31
2019-04-21T13:25:11.743Z,1.52
2019-04-21T13:26:11.384Z,2.15
2019-04-21T13:27:11.332Z,2.33
2019-04-21T13:28:10.599Z,2.11
2019-04-21T13:29:10.563Z,1.60
2019-04-21T13:30:10.569Z,2.49
2019-04-21T13:31:11.827Z,1.82
2019-04-21T13:32:11.067Z,1.95
2019-04-21T13:33:11.288Z,1.04
2019-04-21T13:34:10.645Z,0.99
2019-04-21T13:35:10.841Z,1.59
2019-04-21T13:36:11.787Z,2.55
2019-04-21T13:37:11.831Z,1.82
2019-04-21T13:38:19.925Z,0.93
2019-04-21T13:39:39.571Z,0.48
2019-04-21T13:40:29.797Z,1.10
2019-04-21T13:41:27.215Z,1.04
2019-04-21T13:42:17.495Z,0.96
2019-04-21T13:43:12.298Z,0.97
2019-04-21T13:44:10.967Z,1.16
2019-04-21T13:45:12.050Z,1.52
2019-04-21T13:46:11.956Z,1.06
2019-04-21T13:47:10.575Z,1.47
2019-04-21T13:48:10.710Z,1.68
2019-04-21T13:49:11.571Z,1.86
2019-04-21T13:50:11.157Z,1.88
2019-04-21T13:51:11.167Z,1.66
2019-04-21T13:52:11.018Z,1.17
2019-04-21T13:53:10.563Z,0.65
2019-04-21T13:54:11.525Z,2.30
2019-04-21T13:55:11.816Z,1.88
2019-04-21T13:56:10.800Z,1.69
2019-04-21T13:57:10.590Z,0.60
2019-04-21T13:58:10.593Z,1.40
2019-04-21T13:59:10.647Z,3.19
2019-04-21T14:00:11.028Z,1.90
2019-04-21T14:01:11.766Z,1.91
2019-04-21T14:02:11.226Z,0.92
2019-04-21T14:03:10.580Z,1.38
2019-04-21T14:04:11.534Z,2.84
2019-04-21T14:05:13.387Z,2.26
2019-04-21T14:06:12.045Z,2.55
2019-04-21T14:07:10.578Z,2.01
2019-04-21T14:08:11.266Z,1.98
2019-04-21T14:09:10.610Z,1.30
2019-04-21T14:10:12.455Z,1.06
2019-04-21T14:11:11.372Z,1.99
2019-04-21T14:12:11.604Z,3.30
2019-04-21T14:13:12.054Z,2.79
2019-04-21T14:14:10.613Z,2.23
2019-04-21T14:15:10.627Z,1.65
2019-04-21T14:16:11.809Z,1.68
2019-04-21T14:17:10.951Z,1.63
2019-04-21T14:18:11.015Z,2.37
2019-04-21T14:19:10.629Z,1.52
2019-04-21T14:20:10.937Z,1.60
2019-04-21T14:21:11.381Z,1.15
2019-04-21T14:22:11.850Z,1.30
2019-04-21T14:23:17.787Z,1.18
2019-04-21T14:24:10.962Z,2.38
2019-04-21T14:25:12.046Z,2.56
2019-04-21T14:26:11.918Z,1.66
2019-04-21T14:27:10.612Z,1.74
2019-04-21T14:28:10.628Z,0.63
2019-04-21T14:29:11.358Z,0.59
2019-04-21T14:30:10.615Z,0.61
2019-04-21T14:31:10.656Z,0.60
2019-04-21T14:32:10.656Z,1.65
2019-04-21T14:33:11.996Z,1.74
2019-04-21T14:34:12.054Z,1.50
2019-04-21T14:35:10.949Z,2.05
2019-04-21T14:36:10.745Z,1.38
2019-04-21T14:37:10.909Z,1.73
2019-04-21T14:38:10.894Z,2.64
2019-04-21T14:39:10.706Z,2.24
2019-04-21T14:40:14.092Z,1.40
2019-04-21T14:41:10.639Z,1.40
2019-04-21T14:42:11.827Z,1.50
2019-04-21T14:43:11.786Z,0.91
2019-04-21T14:44:11.092Z,2.01
2019-04-21T14:45:10.630Z,2.60
2019-04-21T14:46:11.039Z,1.93
2019-04-21T14:47:11.253Z,1.61
2019-04-21T14:48:11.310Z,3.13
2019-04-21T14:49:11.116Z,1.50
2019-04-21T14:50:11.410Z,1.51
2019-04-21T14:51:11.190Z,0.82